Time;durP1;ratioP1;P1;durP2;ratioP2;P2;SDS_P1;SDS_P2;PMS_P1;PMS_P2;Temp;Humidity;BMP_temperature;BMP_pressure;BME280_temperature;BME280_humidity;BME280_pressure;Samples;Min_cycle;Max_cycle;Signal;HPM_P1;HPM_P2
2023/11/14 00:01:18;;;;;;;1.52;1.10;;;;;;;8.32;100.00;97728.31;5081583;27;20506;-69
2023/11/14 00:03:43;;;;;;;1.23;1.00;;;;;;;8.44;100.00;97742.66;5064266;27;20142;-70
2023/11/14 00:06:09;;;;;;;2.35;1.60;;;;;;;8.47;100.00;97736.19;5080553;27;20154;-70
2023/11/14 00:08:35;;;;;;;1.65;1.40;;;;;;;8.54;100.00;97753.75;5080697;27;20047;-72
2023/11/14 00:11:05;;;;;;;1.40;1.30;;;;;;;8.42;100.00;97744.72;5080586;27;20184;-71
2023/11/14 00:13:33;;;;;;;1.15;0.98;;;;;;;8.45;100.00;97746.97;5064666;27;20043;-71
2023/11/14 00:15:59;;;;;;;1.30;1.20;;;;;;;7.84;100.00;97754.66;5097881;27;20122;-72
2023/11/14 00:18:26;;;;;;;2.60;1.60;;;;;;;7.57;100.00;97771.19;5097736;27;20070;-70
2023/11/14 00:20:54;;;;;;;1.48;1.38;;;;;;;7.55;100.00;97763.44;5082009;27;20113;-71
2023/11/14 00:23:20;;;;;;;2.08;1.67;;;;;;;7.45;100.00;97764.72;5064848;27;20042;-70
2023/11/14 00:25:46;;;;;;;2.38;1.60;;;;;;;7.35;100.00;97759.72;5061675;28;20051;-70
2023/11/14 00:28:12;;;;;;;2.28;1.50;;;;;;;7.40;100.00;97765.28;5072799;28;20134;-71
2023/11/14 00:30:39;;;;;;;1.98;1.15;;;;;;;7.34;100.00;97767.84;5057763;28;20062;-70
2023/11/14 00:33:05;;;;;;;1.33;1.17;;;;;;;7.27;100.00;97772.22;5073615;28;20048;-69
2023/11/14 00:35:31;;;;;;;0.90;0.90;;;;;;;7.21;100.00;97765.84;5073168;28;20051;-69
2023/11/14 00:37:57;;;;;;;2.13;1.08;;;;;;;7.18;100.00;97752.19;5056958;28;20108;-69
2023/11/14 00:40:23;;;;;;;1.65;1.10;;;;;;;6.91;100.00;97753.63;5057227;28;20089;-69
2023/11/14 00:42:49;;;;;;;2.05;1.50;;;;;;;6.90;100.00;97746.72;5057099;28;20437;-69
2023/11/14 00:45:15;;;;;;;1.17;1.08;;;;;;;6.65;100.00;97740.88;5007607;28;20085;-69
2023/11/14 00:47:42;;;;;;;1.13;1.10;;;;;;;6.79;100.00;97752.44;5056966;28;20052;-69
2023/11/14 00:50:11;;;;;;;1.00;0.90;;;;;;;6.74;100.00;97750.34;5056963;28;20136;-69
2023/11/14 00:52:37;;;;;;;2.47;1.10;;;;;;;6.82;100.00;97752.91;5056841;28;20457;-69
2023/11/14 00:55:04;;;;;;;4.07;0.90;;;;;;;6.93;100.00;97764.00;5040079;28;20056;-69
2023/11/14 00:57:32;;;;;;;1.15;0.90;;;;;;;6.77;100.00;97768.47;5057055;28;20040;-69
2023/11/14 00:59:58;;;;;;;0.70;0.70;;;;;;;6.89;100.00;97756.47;5056486;28;20050;-69
2023/11/14 01:02:24;;;;;;;2.58;0.80;;;;;;;6.83;100.00;97759.00;5056877;28;20044;-70
2023/11/14 01:04:52;;;;;;;1.10;1.00;;;;;;;6.80;100.00;97762.00;5056768;28;20036;-68
2023/11/14 01:07:18;;;;;;;0.70;0.70;;;;;;;6.82;100.00;97760.00;5057622;28;20526;-69
2023/11/14 01:09:43;;;;;;;0.70;0.70;;;;;;;6.82;100.00;97762.63;5091206;28;20043;-69
2023/11/14 01:12:10;;;;;;;0.70;0.70;;;;;;;6.80;100.00;97749.63;5057302;28;20050;-69
2023/11/14 01:14:37;;;;;;;1.25;0.80;;;;;;;6.79;100.00;97752.44;5093376;28;20200;-69
2023/11/14 01:17:03;;;;;;;1.20;1.10;;;;;;;6.80;100.00;97747.00;5069517;28;20147;-70
2023/11/14 01:19:31;;;;;;;1.25;0.50;;;;;;;6.87;100.00;97749.72;5036484;28;20496;-70
2023/11/14 01:21:57;;;;;;;0.70;0.70;;;;;;;6.81;100.00;97748.63;5020146;28;20418;-71
2023/11/14 01:24:23;;;;;;;0.60;0.60;;;;;;;6.79;100.00;97749.81;5053664;28;20052;-69
2023/11/14 01:26:49;;;;;;;0.70;0.70;;;;;;;6.88;100.00;97749.56;5019770;28;20049;-70
2023/11/14 01:29:15;;;;;;;1.67;0.70;;;;;;;6.93;100.00;97766.66;5018845;28;20064;-70
2023/11/14 01:31:40;;;;;;;1.27;0.75;;;;;;;6.97;100.00;97758.19;5036264;28;20537;-70
2023/11/14 01:34:06;;;;;;;0.82;0.80;;;;;;;7.02;100.00;97768.19;5019939;28;20053;-70
2023/11/14 01:36:32;;;;;;;0.70;0.70;;;;;;;7.04;100.00;97769.69;5019780;28;20052;-71
2023/11/14 01:38:58;;;;;;;0.60;0.60;;;;;;;7.04;100.00;97774.13;4996784;28;20140;-70
2023/11/14 01:41:25;;;;;;;1.95;0.60;;;;;;;7.03;100.00;97764.59;5013700;28;20061;-73
2023/11/14 01:43:52;;;;;;;0.70;0.70;;;;;;;6.99;100.00;97774.66;5013787;28;20053;-71
2023/11/14 01:46:18;;;;;;;0.70;0.70;;;;;;;6.86;100.00;97761.28;5029812;28;20555;-70
2023/11/14 01:48:50;;;;;;;0.73;0.73;;;;;;;7.06;100.00;97764.22;5012038;28;20056;-70
2023/11/14 01:51:18;;;;;;;0.60;0.60;;;;;;;6.93;100.00;97765.63;5003396;28;20071;-70
2023/11/14 01:53:49;;;;;;;1.30;0.60;;;;;;;6.90;100.00;97759.94;5019817;28;20048;-70
2023/11/14 01:56:17;;;;;;;0.70;0.70;;;;;;;6.62;100.00;97766.78;5036381;28;20052;-70
2023/11/14 01:58:43;;;;;;;0.73;0.73;;;;;;;6.43;100.00;97769.91;5036261;28;20067;-70
2023/11/14 02:01:13;;;;;;;1.17;0.60;;;;;;;6.62;100.00;97766.78;5003325;28;20127;-70
2023/11/14 02:03:40;;;;;;;0.70;0.70;;;;;;;6.62;100.00;97758.88;5052522;28;20501;-70
2023/11/14 02:06:08;;;;;;;0.90;0.80;;;;;;;6.73;100.00;97763.72;5019694;28;20056;-70
2023/11/14 02:08:35;;;;;;;4.03;0.82;;;;;;;6.68;100.00;97766.91;5020126;28;20052;-70
2023/11/14 02:11:01;;;;;;;1.10;0.82;;;;;;;6.62;100.00;97767.63;5019437;28;20056;-71
2023/11/14 02:13:28;;;;;;;0.70;0.70;;;;;;;6.67;100.00;97769.72;5019803;28;20044;-71
2023/11/14 02:15:54;;;;;;;1.00;0.70;;;;;;;6.71;100.00;97768.34;5052057;28;20620;-70
2023/11/14 02:18:22;;;;;;;0.60;0.60;;;;;;;6.59;100.00;97769.78;5062092;28;20138;-70
2023/11/14 02:20:55;;;;;;;0.77;0.77;;;;;;;6.89;100.00;97764.38;5093762;27;20050;-72
2023/11/14 02:23:26;;;;;;;1.17;0.82;;;;;;;6.91;100.00;97772.09;5121261;27;20362;-72
2023/11/14 02:25:53;;;;;;;0.73;0.73;;;;;;;6.58;100.00;97768.94;5156827;27;20454;-71
2023/11/14 02:28:19;;;;;;;2.92;0.90;;;;;;;6.59;100.00;97767.97;5082623;27;20433;-68
2023/11/14 02:30:46;;;;;;;0.80;0.80;;;;;;;6.67;100.00;97767.88;5065741;27;20050;-67
2023/11/14 02:33:12;;;;;;;1.13;0.80;;;;;;;6.67;100.00;97769.72;5098571;27;20055;-68
2023/11/14 02:35:37;;;;;;;1.05;0.95;;;;;;;6.47;100.00;97763.31;5066160;27;20050;-68
2023/11/14 02:38:03;;;;;;;1.05;0.95;;;;;;;6.71;100.00;97756.00;5065952;27;20050;-68
2023/11/14 02:40:29;;;;;;;1.10;1.00;;;;;;;6.75;100.00;97759.06;5099459;27;20054;-69
2023/11/14 02:42:55;;;;;;;1.05;0.98;;;;;;;6.70;100.00;97764.09;5066280;27;20177;-68
2023/11/14 02:45:22;;;;;;;1.77;1.10;;;;;;;6.80;100.00;97757.53;5059184;28;20056;-68
2023/11/14 02:47:49;;;;;;;1.30;1.20;;;;;;;6.83;100.00;97775.66;5025845;28;20414;-68
2023/11/14 02:50:50;;;;;;;1.55;1.10;;;;;;;7.07;100.00;97757.94;5042965;28;20059;-67
2023/11/14 02:53:17;;;;;;;;;;;;;;;7.11;100.00;97778.50;5076018;28;20059;-68
2023/11/14 02:55:44;;;;;;;1.20;1.10;;;;;;;6.78;100.00;97771.94;5042303;28;19948;-68
2023/11/14 02:58:14;;;;;;;1.30;1.20;;;;;;;6.92;100.00;97767.66;5042519;28;20588;-70
2023/11/14 03:00:45;;;;;;;1.30;1.20;;;;;;;6.84;100.00;97779.91;5041997;28;20105;-70
2023/11/14 03:03:15;;;;;;;1.40;1.30;;;;;;;6.86;100.00;97769.19;5059411;28;20050;-70
2023/11/14 03:05:42;;;;;;;1.10;1.10;;;;;;;6.93;100.00;97769.28;5079022;27;20054;-70
2023/11/14 03:08:09;;;;;;;1.35;0.95;;;;;;;6.94;100.00;97792.84;5098839;27;20882;-70
2023/11/14 03:10:35;;;;;;;2.25;1.20;;;;;;;6.86;100.00;97775.28;5081920;27;20138;-70
2023/11/14 03:13:03;;;;;;;1.98;1.20;;;;;;;7.01;100.00;97777.97;5081250;27;20035;-72
2023/11/14 03:15:29;;;;;;;4.43;1.20;;;;;;;7.12;100.00;97784.59;5085707;27;20046;-70
2023/11/14 03:18:00;;;;;;;1.52;1.13;;;;;;;7.12;100.00;97781.97;5082742;27;20142;-70
2023/11/14 03:20:26;;;;;;;1.30;1.10;;;;;;;7.04;100.00;97780.25;5091684;28;20052;-70
2023/11/14 03:22:52;;;;;;;2.97;1.20;;;;;;;7.09;100.00;97769.13;5041689;28;20060;-70
2023/11/14 03:25:19;;;;;;;1.20;0.90;;;;;;;7.13;100.00;97767.75;5074938;28;20052;-69
2023/11/14 03:27:45;;;;;;;1.30;1.20;;;;;;;7.16;100.00;97785.88;5058115;28;20056;-70
2023/11/14 03:30:12;;;;;;;0.82;0.82;;;;;;;7.09;100.00;97785.78;5057933;28;20048;-69
2023/11/14 03:32:39;;;;;;;0.98;0.88;;;;;;;6.97;100.00;97768.75;5041473;28;20150;-75
2023/11/14 03:35:08;;;;;;;2.92;1.02;;;;;;;7.08;100.00;97773.59;5059150;28;20142;-74
2023/11/14 03:37:34;;;;;;;1.15;1.05;;;;;;;7.01;100.00;97787.69;5074801;28;20487;-72
2023/11/14 03:40:02;;;;;;;1.88;1.40;;;;;;;7.15;100.00;97778.97;5074972;28;20435;-71
2023/11/14 03:42:33;;;;;;;1.13;0.90;;;;;;;7.10;100.00;97783.97;5075269;28;20127;-71
2023/11/14 03:45:00;;;;;;;1.10;0.90;;;;;;;6.97;100.00;97795.13;5075083;28;20502;-69
2023/11/14 03:47:29;;;;;;;1.02;0.90;;;;;;;7.12;100.00;97780.13;5074792;28;20047;-70
2023/11/14 03:49:55;;;;;;;0.70;0.70;;;;;;;7.18;100.00;97781.25;5079432;27;20505;-69
2023/11/14 03:52:21;;;;;;;1.08;0.98;;;;;;;7.05;100.00;97781.03;5090024;28;20130;-72
2023/11/14 03:54:48;;;;;;;1.05;1.02;;;;;;;7.30;100.00;97785.88;5061108;28;20079;-72
2023/11/14 03:57:14;;;;;;;1.10;1.00;;;;;;;7.12;100.00;97785.41;5094598;28;20059;-74
2023/11/14 03:59:44;;;;;;;1.67;1.10;;;;;;;7.28;100.00;97800.25;5041034;28;20043;-70
2023/11/14 04:02:10;;;;;;;0.98;0.90;;;;;;;7.20;100.00;97793.25;5074652;28;20043;-74
2023/11/14 04:04:38;;;;;;;1.10;1.05;;;;;;;7.32;100.00;97790.97;5094459;28;20153;-71
2023/11/14 04:07:04;;;;;;;1.60;0.90;;;;;;;7.32;100.00;97783.06;5044363;28;20047;-72
2023/11/14 04:09:29;;;;;;;0.88;0.88;;;;;;;7.11;100.00;97786.41;5061099;28;20039;-71
2023/11/14 04:11:55;;;;;;;2.15;0.80;;;;;;;7.17;100.00;97776.94;5060682;28;20474;-69
2023/11/14 04:14:21;;;;;;;2.83;0.98;;;;;;;7.26;100.00;97794.34;5037288;28;20594;-68
2023/11/14 04:16:47;;;;;;;2.95;1.05;;;;;;;7.16;100.00;97797.25;5020646;28;20056;-69
2023/11/14 04:19:13;;;;;;;1.15;0.90;;;;;;;6.95;100.00;97783.94;5020767;28;20044;-69
2023/11/14 04:21:39;;;;;;;0.80;0.80;;;;;;;6.94;100.00;97792.84;5020286;28;20060;-71
2023/11/14 04:24:05;;;;;;;1.38;0.75;;;;;;;7.12;100.00;97780.13;5086597;27;20047;-71
2023/11/14 04:26:31;;;;;;;1.13;0.70;;;;;;;7.13;100.00;97783.59;5063879;27;20054;-69
2023/11/14 04:28:57;;;;;;;1.00;0.90;;;;;;;6.96;100.00;97792.69;5080503;27;20405;-70
2023/11/14 04:31:23;;;;;;;0.70;0.70;;;;;;;7.04;100.00;97776.75;5097344;27;20506;-69
2023/11/14 04:33:49;;;;;;;2.55;0.90;;;;;;;7.03;100.00;97778.56;5064142;27;20046;-68
2023/11/14 04:36:15;;;;;;;2.45;0.80;;;;;;;6.81;100.00;97784.75;5080289;27;20043;-72
2023/11/14 04:38:42;;;;;;;1.70;1.58;;;;;;;6.95;100.00;97783.13;5053383;28;20064;-73
2023/11/14 04:41:10;;;;;;;2.53;1.23;;;;;;;7.18;100.00;97783.88;5052859;28;20070;-73
2023/11/14 04:43:36;;;;;;;0.80;0.80;;;;;;;6.97;100.00;97787.22;5053310;28;20052;-74
2023/11/14 04:46:05;;;;;;;0.90;0.85;;;;;;;7.20;100.00;97787.13;5020717;28;20538;-73
2023/11/14 04:48:31;;;;;;;0.70;0.70;;;;;;;7.06;100.00;97794.06;4997378;28;20055;-73
2023/11/14 04:50:58;;;;;;;2.03;0.70;;;;;;;7.04;100.00;97790.78;5000217;28;20496;-71
2023/11/14 04:53:24;;;;;;;0.80;0.80;;;;;;;7.05;100.00;97787.16;5018003;28;20064;-71
2023/11/14 04:55:50;;;;;;;1.27;0.75;;;;;;;7.17;100.00;97790.97;5033179;28;20051;-72
2023/11/14 04:58:17;;;;;;;0.80;0.80;;;;;;;6.97;100.00;97818.06;5033156;28;20211;-71
2023/11/14 05:00:42;;;;;;;1.67;0.90;;;;;;;7.08;100.00;97794.69;5033539;28;20480;-71
2023/11/14 05:03:08;;;;;;;1.00;0.90;;;;;;;7.04;100.00;97801.34;4993598;28;20128;-70
2023/11/14 05:05:35;;;;;;;2.63;1.00;;;;;;;7.07;100.00;97803.63;4993950;28;20045;-71
2023/11/14 05:08:01;;;;;;;1.67;0.90;;;;;;;7.14;100.00;97804.53;4992167;28;20378;-70
2023/11/14 05:10:27;;;;;;;3.40;1.60;;;;;;;7.00;100.00;97804.50;5007640;28;20166;-69
2023/11/14 05:12:53;;;;;;;1.48;0.80;;;;;;;6.73;100.00;97816.47;5034184;28;20139;-69
2023/11/14 05:15:19;;;;;;;1.10;1.08;;;;;;;6.96;100.00;97817.25;5017883;28;20380;-71
2023/11/14 05:17:45;;;;;;;2.00;1.20;;;;;;;7.00;100.00;97818.53;5016643;28;20056;-72
2023/11/14 05:20:12;;;;;;;3.80;1.77;;;;;;;6.99;100.00;97810.78;5038298;28;20103;-72
2023/11/14 05:22:38;;;;;;;2.90;1.80;;;;;;;6.76;100.00;97822.19;5041348;28;20146;-70
2023/11/14 05:25:06;;;;;;;3.83;1.05;;;;;;;6.76;100.00;97819.56;5075427;28;20379;-71
2023/11/14 05:27:32;;;;;;;1.05;1.00;;;;;;;6.79;100.00;97821.88;5042204;28;20055;-71
2023/11/14 05:29:58;;;;;;;0.70;0.70;;;;;;;6.86;100.00;97832.50;5058198;28;20097;-71
2023/11/14 05:32:25;;;;;;;1.08;0.98;;;;;;;6.93;100.00;97835.25;5074799;28;20054;-71
2023/11/14 05:34:51;;;;;;;1.63;1.05;;;;;;;6.89;100.00;97827.69;5105888;28;20043;-70
2023/11/14 05:37:17;;;;;;;1.33;0.90;;;;;;;6.92;100.00;97831.78;5113269;28;20047;-70
2023/11/14 05:39:44;;;;;;;1.05;0.95;;;;;;;6.88;100.00;97833.97;5113656;28;20102;-70
2023/11/14 05:42:11;;;;;;;1.50;1.40;;;;;;;6.91;100.00;97843.34;5095632;28;20142;-70
2023/11/14 05:44:38;;;;;;;2.10;1.90;;;;;;;7.09;100.00;97829.84;5096413;28;20039;-70
2023/11/14 05:47:06;;;;;;;1.73;1.50;;;;;;;7.02;100.00;97852.66;5095489;28;20051;-70
2023/11/14 05:49:33;;;;;;;5.10;2.08;;;;;;;7.03;100.00;97828.72;5074629;28;20063;-69
2023/11/14 05:51:58;;;;;;;3.67;1.75;;;;;;;7.16;100.00;97834.22;5074889;28;20062;-70
2023/11/14 05:54:26;;;;;;;1.63;1.30;;;;;;;7.11;100.00;97836.56;5085558;27;20051;-74
2023/11/14 05:56:52;;;;;;;2.08;1.10;;;;;;;6.87;100.00;97850.78;5064590;27;20066;-71
2023/11/14 05:59:17;;;;;;;5.85;1.00;;;;;;;6.99;100.00;97853.84;5073276;28;20040;-74
2023/11/14 06:01:44;;;;;;;2.75;0.95;;;;;;;7.10;100.00;97855.22;5078683;28;20090;-74
2023/11/14 06:04:10;;;;;;;1.55;1.08;;;;;;;7.14;100.00;97853.84;5081196;27;20083;-74
2023/11/14 06:06:37;;;;;;;1.40;1.20;;;;;;;7.32;100.00;97851.72;5098599;27;20084;-74
2023/11/14 06:09:03;;;;;;;1.52;1.08;;;;;;;7.04;100.00;97858.59;5081550;27;20081;-73
2023/11/14 06:11:29;;;;;;;4.47;3.35;;;;;;;7.02;100.00;97855.28;5080928;27;20627;-72
2023/11/14 06:13:56;;;;;;;5.03;3.78;;;;;;;6.83;100.00;97854.81;5098059;28;20135;-73
2023/11/14 06:16:21;;;;;;;8.27;4.55;;;;;;;7.02;100.00;97842.94;5044756;28;20490;-73
2023/11/14 06:18:50;;;;;;;6.13;3.45;;;;;;;6.93;100.00;97855.34;5078152;27;20097;-72
2023/11/14 06:21:16;;;;;;;4.70;2.83;;;;;;;6.88;100.00;97851.63;5074369;28;20127;-73
2023/11/14 06:23:43;;;;;;;1.67;1.58;;;;;;;7.02;100.00;97857.94;5041415;28;20063;-74
2023/11/14 06:26:09;;;;;;;1.42;1.33;;;;;;;7.13;100.00;97855.69;5044785;28;20379;-73
2023/11/14 06:28:35;;;;;;;1.63;1.50;;;;;;;7.15;100.00;97844.97;5061370;28;20047;-73
2023/11/14 06:31:20;;;;;;;1.60;1.50;;;;;;;7.13;100.00;97852.22;5083265;28;20422;-73
2023/11/14 06:33:45;;;;;;;1.67;1.33;;;;;;;7.10;100.00;97850.78;5061537;28;20048;-73
2023/11/14 06:36:14;;;;;;;1.75;1.65;;;;;;;7.34;100.00;97852.31;5061071;28;20556;-74
2023/11/14 06:38:40;;;;;;;1.50;1.40;;;;;;;7.38;100.00;97849.16;5077259;28;20101;-73
2023/11/14 06:41:09;;;;;;;4.10;1.88;;;;;;;7.68;100.00;97852.63;5061515;28;20051;-73
2023/11/14 06:43:35;;;;;;;2.88;1.50;;;;;;;7.66;100.00;97855.44;5077748;28;20051;-74
2023/11/14 06:46:01;;;;;;;1.45;1.20;;;;;;;7.64;100.00;97860.06;5077804;28;20074;-74
2023/11/14 06:48:27;;;;;;;2.20;1.50;;;;;;;7.64;100.00;97857.44;5060434;28;20078;-74
2023/11/14 06:50:54;;;;;;;2.80;1.90;;;;;;;7.61;100.00;97860.44;5043834;28;20058;-74
2023/11/14 06:53:20;;;;;;;3.58;1.50;;;;;;;7.70;100.00;97854.09;5096327;27;20545;-73
2023/11/14 06:55:45;;;;;;;2.20;1.73;;;;;;;7.81;100.00;97855.44;5098535;27;20130;-74
2023/11/14 06:58:11;;;;;;;1.70;1.30;;;;;;;7.78;100.00;97853.97;5098810;27;20046;-73
2023/11/14 07:00:38;;;;;;;2.88;1.70;;;;;;;7.80;100.00;97851.16;5135738;27;20055;-72
2023/11/14 07:03:04;;;;;;;4.75;1.60;;;;;;;7.86;100.00;97853.88;5153538;27;20049;-73
2023/11/14 07:05:32;;;;;;;2.22;1.67;;;;;;;7.70;100.00;97859.38;5119622;27;20049;-73
2023/11/14 07:08:00;;;;;;;3.08;1.45;;;;;;;7.82;100.00;97849.97;5101972;27;20448;-73
2023/11/14 07:10:30;;;;;;;1.55;1.35;;;;;;;7.74;100.00;97863.28;5096347;27;20043;-73
2023/11/14 07:12:57;;;;;;;1.00;1.00;;;;;;;7.90;100.00;97859.63;5064476;28;20051;-74
2023/11/14 07:15:23;;;;;;;1.70;1.13;;;;;;;7.92;100.00;97861.06;5077206;28;20051;-72
2023/11/14 07:17:49;;;;;;;1.50;1.20;;;;;;;7.72;100.00;97875.03;5060740;28;20036;-70
2023/11/14 07:20:20;;;;;;;1.50;1.40;;;;;;;7.79;100.00;97874.13;5077006;28;20063;-73
2023/11/14 07:22:48;;;;;;;1.03;1.03;;;;;;;8.02;100.00;97877.47;5077575;28;20392;-73
2023/11/14 07:25:14;;;;;;;4.43;1.15;;;;;;;7.83;100.00;97874.56;5059876;28;20079;-73
2023/11/14 07:27:41;;;;;;;3.58;1.40;;;;;;;7.80;100.00;97861.72;5059954;28;20558;-75
2023/11/14 07:30:09;;;;;;;1.55;1.20;;;;;;;7.82;100.00;97876.41;5077153;28;20707;-74
2023/11/14 07:32:36;;;;;;;2.30;1.27;;;;;;;7.99;100.00;97861.16;5077026;28;20044;-73
2023/11/14 07:35:02;;;;;;;1.30;1.20;;;;;;;7.88;100.00;97877.47;5060078;28;20035;-73
2023/11/14 07:37:32;;;;;;;1.23;1.10;;;;;;;7.81;100.00;97871.28;5077284;28;20050;-73
2023/11/14 07:39:58;;;;;;;1.10;1.10;;;;;;;7.71;100.00;97871.56;5060400;28;20446;-73
2023/11/14 07:42:24;;;;;;;3.30;1.33;;;;;;;7.85;100.00;97873.38;5094342;27;20573;-72
2023/11/14 07:44:50;;;;;;;1.27;1.17;;;;;;;7.91;100.00;97872.66;5098344;27;20074;-74
2023/11/14 07:47:16;;;;;;;3.08;1.35;;;;;;;7.88;100.00;97873.03;5093449;28;20478;-73
2023/11/14 07:49:42;;;;;;;4.55;2.20;;;;;;;7.65;100.00;97874.94;5027014;28;20097;-74
2023/11/14 07:52:10;;;;;;;0.95;0.95;;;;;;;7.86;100.00;97890.88;5094173;28;20083;-75
2023/11/14 07:54:36;;;;;;;3.35;1.23;;;;;;;7.90;100.00;97871.00;5044575;28;20075;-76
2023/11/14 07:57:05;;;;;;;2.42;1.50;;;;;;;7.79;100.00;97882.06;5040903;28;20056;-78
2023/11/14 07:59:31;;;;;;;1.30;1.20;;;;;;;7.72;100.00;97880.31;5072728;28;20090;-76
2023/11/14 08:01:59;;;;;;;2.22;1.40;;;;;;;7.99;100.00;97893.69;5013419;28;20096;-75
2023/11/14 08:04:25;;;;;;;1.50;1.40;;;;;;;8.04;100.00;97887.88;4996336;28;20239;-76
2023/11/14 08:06:51;;;;;;;1.48;1.30;;;;;;;8.13;100.00;97886.75;4996527;28;20081;-78
2023/11/14 08:09:20;;;;;;;1.40;1.30;;;;;;;7.81;100.00;97889.78;5012743;28;20049;-75
2023/11/14 08:11:48;;;;;;;1.40;1.30;;;;;;;8.03;100.00;97886.19;4995647;28;20060;-75
2023/11/14 08:14:39;;;;;;;1.40;1.20;;;;;;;8.23;100.00;97888.13;4992970;28;20042;-76
2023/11/14 08:17:05;;;;;;;2.00;1.23;;;;;;;7.97;100.00;97885.13;4993728;28;20104;-74
2023/11/14 08:19:30;;;;;;;1.00;1.00;;;;;;;8.17;100.00;97888.84;5010604;28;20488;-72
2023/11/14 08:22:03;;;;;;;1.80;1.27;;;;;;;8.16;100.00;97895.09;5005438;28;20060;-71
2023/11/14 08:24:29;;;;;;;1.27;1.17;;;;;;;8.19;100.00;97894.78;5000209;28;20280;-72
2023/11/14 08:26:56;;;;;;;3.45;1.50;;;;;;;8.29;100.00;97892.66;4999344;28;20526;-72
2023/11/14 08:29:23;;;;;;;1.42;1.33;;;;;;;7.97;100.00;97903.63;5015724;28;20056;-72
2023/11/14 08:31:49;;;;;;;1.65;1.30;;;;;;;7.80;100.00;97896.06;5034978;28;20144;-72
2023/11/14 08:34:15;;;;;;;1.45;1.35;;;;;;;8.16;100.00;97896.94;5041181;28;20068;-72
2023/11/14 08:36:41;;;;;;;1.40;1.30;;;;;;;8.20;100.00;97883.19;5007855;28;20056;-73
2023/11/14 08:39:09;;;;;;;2.10;1.40;;;;;;;8.11;100.00;97897.50;5048392;28;20052;-71
2023/11/14 08:41:36;;;;;;;1.90;1.50;;;;;;;8.20;100.00;97899.03;5019233;28;20040;-71
2023/11/14 08:44:03;;;;;;;2.03;1.40;;;;;;;8.12;100.00;97895.66;5003729;28;20485;-72
2023/11/14 08:46:29;;;;;;;1.90;1.20;;;;;;;8.01;100.00;97882.94;5018349;28;20309;-71
2023/11/14 08:48:55;;;;;;;1.45;1.20;;;;;;;8.15;100.00;97880.25;4992338;28;20398;-71
2023/11/14 08:51:21;;;;;;;1.30;1.20;;;;;;;8.08;100.00;97899.69;4992360;28;20172;-72
2023/11/14 08:53:47;;;;;;;3.03;1.33;;;;;;;8.14;100.00;97897.13;4976197;28;20100;-72
2023/11/14 08:56:13;;;;;;;2.50;1.48;;;;;;;8.08;100.00;97912.91;4993795;28;20042;-72
2023/11/14 08:58:40;;;;;;;3.88;1.35;;;;;;;8.19;100.00;97909.81;5000857;28;20118;-74
2023/11/14 09:01:06;;;;;;;1.30;1.20;;;;;;;7.95;100.00;97896.91;4998856;28;20053;-74
2023/11/14 09:03:33;;;;;;;1.67;1.42;;;;;;;7.94;100.00;97900.53;4985355;28;20500;-74
2023/11/14 09:06:00;;;;;;;2.30;1.50;;;;;;;7.83;100.00;97898.34;5030844;28;20045;-74
2023/11/14 09:08:27;;;;;;;1.50;1.40;;;;;;;7.87;100.00;97892.50;5039014;28;20143;-74
2023/11/14 09:10:52;;;;;;;2.42;1.40;;;;;;;8.05;100.00;97881.56;5047544;28;20140;-74
2023/11/14 09:13:18;;;;;;;1.92;1.40;;;;;;;7.96;100.00;97887.97;5056982;28;20031;-75
2023/11/14 09:15:44;;;;;;;2.10;1.60;;;;;;;7.87;100.00;97899.63;5090983;28;20075;-75
2023/11/14 09:18:10;;;;;;;1.95;1.40;;;;;;;8.01;100.00;97896.16;5074215;28;20067;-74
2023/11/14 09:20:39;;;;;;;1.40;1.30;;;;;;;8.09;100.00;97890.75;5078202;27;20158;-76
2023/11/14 09:23:05;;;;;;;1.50;1.40;;;;;;;8.14;100.00;97909.53;5116604;27;20054;-75
2023/11/14 09:25:31;;;;;;;2.85;1.33;;;;;;;8.09;100.00;97888.94;5111387;27;20035;-75
2023/11/14 09:27:58;;;;;;;2.50;1.17;;;;;;;8.25;100.00;97882.66;5119119;27;20504;-73
2023/11/14 09:30:24;;;;;;;1.50;1.35;;;;;;;7.96;100.00;97880.03;5103228;27;20038;-75
2023/11/14 09:32:50;;;;;;;2.53;1.25;;;;;;;7.92;100.00;97894.59;5103360;27;20099;-73
2023/11/14 09:35:15;;;;;;;2.17;1.20;;;;;;;7.85;100.00;97893.69;5101916;27;20054;-74
2023/11/14 09:37:41;;;;;;;2.58;1.40;;;;;;;8.03;100.00;97888.84;5103348;27;20046;-75
2023/11/14 09:40:08;;;;;;;2.05;1.45;;;;;;;8.14;100.00;97897.13;5137835;27;20477;-75
2023/11/14 09:42:37;;;;;;;1.92;1.42;;;;;;;8.30;100.00;97896.16;5119867;27;20054;-75
2023/11/14 09:45:04;;;;;;;4.93;1.45;;;;;;;7.78;100.00;97903.38;5128799;27;20042;-74
2023/11/14 09:47:32;;;;;;;1.50;1.40;;;;;;;7.82;100.00;97889.63;5112135;27;20130;-73
2023/11/14 09:50:04;;;;;;;2.15;1.70;;;;;;;8.12;100.00;97885.91;5103142;27;20055;-75
2023/11/14 09:52:34;;;;;;;4.00;1.58;;;;;;;8.11;100.00;97899.31;5103240;27;20787;-73
2023/11/14 09:55:00;;;;;;;1.77;1.33;;;;;;;8.07;100.00;97901.50;5120088;27;20064;-73
2023/11/14 09:57:27;;;;;;;3.67;1.50;;;;;;;8.16;100.00;97918.09;5116633;27;20045;-74
2023/11/14 09:59:56;;;;;;;2.08;1.33;;;;;;;8.00;100.00;97903.25;5107813;27;20127;-73
2023/11/14 10:02:21;;;;;;;1.60;1.20;;;;;;;8.05;100.00;97900.91;5101794;27;20034;-74
2023/11/14 10:04:49;;;;;;;1.40;1.30;;;;;;;8.02;100.00;97901.25;5118746;27;20046;-75
2023/11/14 10:07:17;;;;;;;1.45;1.35;;;;;;;7.93;100.00;97896.25;5096933;27;20056;-75
2023/11/14 10:09:44;;;;;;;1.70;1.48;;;;;;;7.91;100.00;97891.16;5102598;27;20031;-76
2023/11/14 10:12:10;;;;;;;2.10;1.30;;;;;;;7.85;100.00;97867.28;5073800;28;20449;-75
2023/11/14 10:14:45;;;;;;;1.55;1.20;;;;;;;7.89;100.00;97902.88;5044780;28;20047;-74
2023/11/14 10:17:16;;;;;;;2.88;1.30;;;;;;;8.01;100.00;97898.81;5044942;28;20051;-74
2023/11/14 10:20:05;;;;;;;2.65;1.40;;;;;;;8.06;100.00;97896.41;5061632;28;20047;-73
2023/11/14 10:23:03;;;;;;;2.58;1.40;;;;;;;7.78;100.00;97900.72;5056428;28;20223;-72
2023/11/14 10:25:32;;;;;;;1.30;1.20;;;;;;;7.85;100.00;97893.69;5062208;28;20043;-74
2023/11/14 10:28:04;;;;;;;1.85;1.30;;;;;;;7.94;100.00;97898.72;5048846;28;20282;-70
2023/11/14 10:30:45;;;;;;;1.10;1.00;;;;;;;7.96;100.00;97896.72;5078385;28;20039;-75
2023/11/14 10:33:39;;;;;;;1.05;1.00;;;;;;;7.85;100.00;97901.63;5085317;28;20024;-80
2023/11/14 10:36:09;;;;;;;1.50;1.40;;;;;;;7.71;100.00;97905.09;5048458;28;20495;-80
2023/11/14 10:38:36;;;;;;;1.30;1.20;;;;;;;7.35;100.00;97914.72;5077198;28;20138;-72
2023/11/14 10:41:02;;;;;;;2.15;1.23;;;;;;;7.12;100.00;97916.59;5037503;28;20147;-69
2023/11/14 10:43:32;;;;;;;1.20;1.10;;;;;;;7.48;100.00;97912.25;5042538;28;20063;-71
2023/11/14 10:46:07;;;;;;;1.95;1.38;;;;;;;7.57;100.00;97911.19;5024265;28;20051;-68
2023/11/14 10:48:35;;;;;;;1.33;1.10;;;;;;;7.54;100.00;97900.97;5040397;28;20090;-73
2023/11/14 10:51:04;;;;;;;1.13;1.05;;;;;;;7.75;100.00;97904.53;5040748;28;20052;-74
2023/11/14 10:53:30;;;;;;;1.73;1.40;;;;;;;7.52;100.00;97887.16;5024598;28;20086;-72
2023/11/14 10:55:57;;;;;;;1.23;1.10;;;;;;;7.21;100.00;97912.88;5024310;28;20058;-73
2023/11/14 10:58:26;;;;;;;1.63;1.20;;;;;;;7.12;100.00;97900.75;5023791;28;20056;-74
2023/11/14 11:00:51;;;;;;;2.05;1.23;;;;;;;7.21;100.00;97900.47;5024714;28;20040;-74
2023/11/14 11:03:18;;;;;;;1.17;1.08;;;;;;;7.40;100.00;97913.16;5058267;28;20189;-75
2023/11/14 11:05:46;;;;;;;3.47;1.83;;;;;;;7.47;100.00;97924.69;5041293;28;20044;-70
2023/11/14 11:08:13;;;;;;;1.33;1.02;;;;;;;7.42;100.00;97911.19;5040937;28;20051;-69
2023/11/14 11:10:42;;;;;;;1.58;1.40;;;;;;;7.52;100.00;97916.22;5057751;28;20064;-74
2023/11/14 11:13:23;;;;;;;1.25;1.15;;;;;;;7.70;100.00;97921.94;5131926;27;20055;-73
2023/11/14 11:15:51;;;;;;;1.30;1.20;;;;;;;7.57;100.00;97909.38;5133307;27;20542;-72
2023/11/14 11:18:24;;;;;;;1.27;1.17;;;;;;;7.32;100.00;97912.44;5081946;27;20043;-69
2023/11/14 11:20:50;;;;;;;2.25;1.17;;;;;;;7.17;100.00;97917.69;5081575;27;20054;-69
2023/11/14 11:23:16;;;;;;;1.77;1.63;;;;;;;7.15;100.00;97921.50;5098546;27;20043;-70
2023/11/14 11:25:48;;;;;;;1.50;1.20;;;;;;;7.50;100.00;97920.84;5098544;27;20050;-69
2023/11/14 11:28:36;;;;;;;1.60;1.50;;;;;;;7.46;100.00;97943.31;5116732;27;20046;-69
2023/11/14 11:31:06;;;;;;;1.10;1.10;;;;;;;7.28;100.00;97917.25;5118835;27;20134;-70
2023/11/14 11:33:36;;;;;;;2.08;1.40;;;;;;;7.29;100.00;97920.72;5118854;27;20057;-70
2023/11/14 11:36:20;;;;;;;1.27;1.17;;;;;;;7.26;100.00;97935.09;5101741;27;20035;-71